TAF and METAR

Decoding for American and Canadian METARs and TAFs is not fully implemented.

Could not understand the following METAR

CWEU 011600Z 13024G33KT 1/8SM BLSN OVC150 M22/M25 A3070 RMK BLSN4AC4 PRESRR SLP412
No TAF available for Eureka